Weather in selectable METAR weather stations

1) Select the Continent / Group:

[Europe]  [Asia]  [Africa]  [North America]  [South America]  
[Central America and Caribbean]  [Oceania]  [Antarctica]  
2) Select the Weather station (City):


METAR = OAKB 211150Z 35012KT 320V030 CAVOK 30/M16 Q1013 RMK A2994 BLU BLU

STATIONOAKB
NAMEKabul Intl, --, AH
OBSERVED21.09.2020 16:20 (21.09.2020 11:50 UTC), 46 min ago
TEMPERATURE30.0°C ( 86°F)
WINDN (350 degrees) at 14 MPH (12 knots; 6.2 m/s)
HUMIDITY4%
PRESSURE1012.9 hPa
Click here to search the weather station or to give the station identifier
(four-character ICAO Location Indicator) for weather data.